sensor_id;sensor_type;location;lat;lon;timestamp;temperature;humidity
30648;DHT22;17683;53.360;9.736;2022-07-23T00:01:00;16.90;99.90
30648;DHT22;17683;53.360;9.736;2022-07-23T00:03:26;16.90;99.90
30648;DHT22;17683;53.360;9.736;2022-07-23T00:05:52;16.90;99.90
30648;DHT22;17683;53.360;9.736;2022-07-23T00:08:17;16.90;99.90
30648;DHT22;17683;53.360;9.736;2022-07-23T00:10:43;16.80;99.90
30648;DHT22;17683;53.360;9.736;2022-07-23T00:13:09;16.80;99.90
30648;DHT22;17683;53.360;9.736;2022-07-23T00:15:35;16.80;99.90
30648;DHT22;17683;53.360;9.736;2022-07-23T00:18:01;16.80;99.90
30648;DHT22;17683;53.360;9.736;2022-07-23T00:20:27;16.70;99.90
30648;DHT22;17683;53.360;9.736;2022-07-23T00:22:54;16.70;99.90
30648;DHT22;17683;53.360;9.736;2022-07-23T00:25:24;16.70;99.90
30648;DHT22;17683;53.360;9.736;2022-07-23T00:27:50;16.60;99.90
30648;DHT22;17683;53.360;9.736;2022-07-23T00:30:16;16.60;99.90
30648;DHT22;17683;53.360;9.736;2022-07-23T00:32:47;16.60;99.90
30648;DHT22;17683;53.360;9.736;2022-07-23T00:35:13;16.60;99.90
30648;DHT22;17683;53.360;9.736;2022-07-23T00:37:39;16.60;99.90
30648;DHT22;17683;53.360;9.736;2022-07-23T00:40:05;16.60;99.90
30648;DHT22;17683;53.360;9.736;2022-07-23T00:42:31;16.50;99.90
30648;DHT22;17683;53.360;9.736;2022-07-23T00:44:58;16.50;99.90
30648;DHT22;17683;53.360;9.736;2022-07-23T00:47:23;16.50;99.90
30648;DHT22;17683;53.360;9.736;2022-07-23T00:49:49;16.50;99.90
30648;DHT22;17683;53.360;9.736;2022-07-23T00:52:15;16.40;99.90
30648;DHT22;17683;53.360;9.736;2022-07-23T00:54:41;16.40;99.90
30648;DHT22;17683;53.360;9.736;2022-07-23T00:57:07;16.40;99.90
30648;DHT22;17683;53.360;9.736;2022-07-23T00:59:33;16.40;99.90
30648;DHT22;17683;53.360;9.736;2022-07-23T01:01:59;16.40;99.90
30648;DHT22;17683;53.360;9.736;2022-07-23T01:04:25;16.30;99.90
30648;DHT22;17683;53.360;9.736;2022-07-23T01:06:51;16.30;99.90
30648;DHT22;17683;53.360;9.736;2022-07-23T01:09:17;16.30;99.90
30648;DHT22;17683;53.360;9.736;2022-07-23T01:11:43;16.30;99.90
30648;DHT22;17683;53.360;9.736;2022-07-23T01:14:14;16.20;99.90
30648;DHT22;17683;53.360;9.736;2022-07-23T01:16:42;16.20;99.90
30648;DHT22;17683;53.360;9.736;2022-07-23T01:19:09;16.20;99.90
30648;DHT22;17683;53.360;9.736;2022-07-23T01:21:43;16.20;99.90
30648;DHT22;17683;53.360;9.736;2022-07-23T01:24:10;16.20;99.90
30648;DHT22;17683;53.360;9.736;2022-07-23T01:26:37;16.20;99.90
30648;DHT22;17683;53.360;9.736;2022-07-23T01:29:03;16.10;99.90
30648;DHT22;17683;53.360;9.736;2022-07-23T01:31:29;16.20;99.90
30648;DHT22;17683;53.360;9.736;2022-07-23T01:33:55;16.10;99.90
30648;DHT22;17683;53.360;9.736;2022-07-23T01:36:21;16.20;99.90
30648;DHT22;17683;53.360;9.736;2022-07-23T01:38:48;16.10;99.90
30648;DHT22;17683;53.360;9.736;2022-07-23T01:41:13;16.10;99.90
30648;DHT22;17683;53.360;9.736;2022-07-23T01:43:39;16.10;99.90
30648;DHT22;17683;53.360;9.736;2022-07-23T01:46:05;16.10;99.90
30648;DHT22;17683;53.360;9.736;2022-07-23T01:48:31;16.10;99.90
30648;DHT22;17683;53.360;9.736;2022-07-23T01:50:57;16.10;99.90
30648;DHT22;17683;53.360;9.736;2022-07-23T01:53:22;16.10;99.90
30648;DHT22;17683;53.360;9.736;2022-07-23T01:55:48;16.10;99.90
30648;DHT22;17683;53.360;9.736;2022-07-23T01:58:14;16.10;99.90
30648;DHT22;17683;53.360;9.736;2022-07-23T02:00:39;16.10;99.90
30648;DHT22;17683;53.360;9.736;2022-07-23T02:03:05;16.10;99.90
30648;DHT22;17683;53.360;9.736;2022-07-23T02:05:34;16.10;99.90
30648;DHT22;17683;53.360;9.736;2022-07-23T02:08:00;16.00;99.90
30648;DHT22;17683;53.360;9.736;2022-07-23T02:10:26;16.00;99.90
30648;DHT22;17683;53.360;9.736;2022-07-23T02:12:52;16.00;99.90
30648;DHT22;17683;53.360;9.736;2022-07-23T02:15:18;16.00;99.90
30648;DHT22;17683;53.360;9.736;2022-07-23T02:17:43;15.90;99.90
30648;DHT22;17683;53.360;9.736;2022-07-23T02:20:10;15.90;99.90
30648;DHT22;17683;53.360;9.736;2022-07-23T02:22:36;15.90;99.90
30648;DHT22;17683;53.360;9.736;2022-07-23T02:25:03;15.80;99.90
30648;DHT22;17683;53.360;9.736;2022-07-23T02:27:29;15.70;99.90
30648;DHT22;17683;53.360;9.736;2022-07-23T02:29:55;15.70;99.90
30648;DHT22;17683;53.360;9.736;2022-07-23T02:32:21;15.70;99.90
30648;DHT22;17683;53.360;9.736;2022-07-23T02:34:47;15.60;99.90
30648;DHT22;17683;53.360;9.736;2022-07-23T02:37:13;15.60;99.90
30648;DHT22;17683;53.360;9.736;2022-07-23T02:39:40;15.60;99.90
30648;DHT22;17683;53.360;9.736;2022-07-23T02:42:06;15.50;99.90
30648;DHT22;17683;53.360;9.736;2022-07-23T02:44:32;15.50;99.90
30648;DHT22;17683;53.360;9.736;2022-07-23T02:46:58;15.40;99.90
30648;DHT22;17683;53.360;9.736;2022-07-23T02:49:24;15.40;99.90
30648;DHT22;17683;53.360;9.736;2022-07-23T02:51:49;15.30;99.90
30648;DHT22;17683;53.360;9.736;2022-07-23T02:54:15;15.30;99.90
30648;DHT22;17683;53.360;9.736;2022-07-23T02:56:41;15.30;99.90
30648;DHT22;17683;53.360;9.736;2022-07-23T02:59:07;15.30;99.90
30648;DHT22;17683;53.360;9.736;2022-07-23T03:01:33;15.20;99.90
30648;DHT22;17683;53.360;9.736;2022-07-23T03:03:59;15.20;99.90
30648;DHT22;17683;53.360;9.736;2022-07-23T03:06:25;15.10;99.90
30648;DHT22;17683;53.360;9.736;2022-07-23T03:08:51;15.10;99.90
30648;DHT22;17683;53.360;9.736;2022-07-23T03:11:17;15.10;99.90
30648;DHT22;17683;53.360;9.736;2022-07-23T03:13:42;15.00;99.90
30648;DHT22;17683;53.360;9.736;2022-07-23T03:16:08;15.00;99.90
30648;DHT22;17683;53.360;9.736;2022-07-23T03:18:34;15.00;99.90
30648;DHT22;17683;53.360;9.736;2022-07-23T03:21:00;14.90;99.90
30648;DHT22;17683;53.360;9.736;2022-07-23T03:23:26;14.90;99.90
30648;DHT22;17683;53.360;9.736;2022-07-23T03:25:52;14.90;99.90
30648;DHT22;17683;53.360;9.736;2022-07-23T03:28:18;14.90;99.90
30648;DHT22;17683;53.360;9.736;2022-07-23T03:30:46;14.80;99.90
30648;DHT22;17683;53.360;9.736;2022-07-23T03:33:16;14.80;99.90
30648;DHT22;17683;53.360;9.736;2022-07-23T03:35:43;14.80;99.90
30648;DHT22;17683;53.360;9.736;2022-07-23T03:38:09;14.80;99.90
30648;DHT22;17683;53.360;9.736;2022-07-23T03:40:34;14.80;99.90
30648;DHT22;17683;53.360;9.736;2022-07-23T03:43:00;14.80;99.90
30648;DHT22;17683;53.360;9.736;2022-07-23T03:45:26;14.80;99.90
30648;DHT22;17683;53.360;9.736;2022-07-23T03:47:52;14.90;99.90
30648;DHT22;17683;53.360;9.736;2022-07-23T03:50:18;14.90;99.90
30648;DHT22;17683;53.360;9.736;2022-07-23T03:52:43;14.90;99.90
30648;DHT22;17683;53.360;9.736;2022-07-23T03:55:09;14.90;99.90
30648;DHT22;17683;53.360;9.736;2022-07-23T03:57:35;15.00;99.90
30648;DHT22;17683;53.360;9.736;2022-07-23T04:00:01;15.00;99.90
30648;DHT22;17683;53.360;9.736;2022-07-23T04:02:27;15.00;99.90
30648;DHT22;17683;53.360;9.736;2022-07-23T04:04:53;15.00;99.90
30648;DHT22;17683;53.360;9.736;2022-07-23T04:07:19;15.00;99.90
30648;DHT22;17683;53.360;9.736;2022-07-23T04:09:45;15.00;99.90
30648;DHT22;17683;53.360;9.736;2022-07-23T04:12:10;15.00;99.90
30648;DHT22;17683;53.360;9.736;2022-07-23T04:14:36;15.00;99.90
30648;DHT22;17683;53.360;9.736;2022-07-23T04:17:02;15.00;99.90
30648;DHT22;17683;53.360;9.736;2022-07-23T04:19:28;15.00;99.90
30648;DHT22;17683;53.360;9.736;2022-07-23T04:21:56;15.10;99.90
30648;DHT22;17683;53.360;9.736;2022-07-23T04:24:21;15.10;99.90
30648;DHT22;17683;53.360;9.736;2022-07-23T04:26:47;15.10;99.90
30648;DHT22;17683;53.360;9.736;2022-07-23T04:29:13;15.10;99.90
30648;DHT22;17683;53.360;9.736;2022-07-23T04:31:38;15.10;99.90
30648;DHT22;17683;53.360;9.736;2022-07-23T04:34:04;15.10;99.90
30648;DHT22;17683;53.360;9.736;2022-07-23T04:36:30;15.10;99.90
30648;DHT22;17683;53.360;9.736;2022-07-23T04:38:56;15.10;99.90
30648;DHT22;17683;53.360;9.736;2022-07-23T04:41:22;15.10;99.90
30648;DHT22;17683;53.360;9.736;2022-07-23T04:43:47;15.10;99.90
30648;DHT22;17683;53.360;9.736;2022-07-23T04:46:13;15.10;99.90
30648;DHT22;17683;53.360;9.736;2022-07-23T04:48:39;15.20;99.90
30648;DHT22;17683;53.360;9.736;2022-07-23T04:51:05;15.20;99.90
30648;DHT22;17683;53.360;9.736;2022-07-23T04:53:31;15.20;99.90
30648;DHT22;17683;53.360;9.736;2022-07-23T04:55:57;15.20;99.90
30648;DHT22;17683;53.360;9.736;2022-07-23T04:58:22;15.20;99.90
30648;DHT22;17683;53.360;9.736;2022-07-23T05:00:48;15.20;99.90
30648;DHT22;17683;53.360;9.736;2022-07-23T05:03:14;15.20;99.90
30648;DHT22;17683;53.360;9.736;2022-07-23T05:05:40;15.20;99.90
30648;DHT22;17683;53.360;9.736;2022-07-23T05:08:05;15.20;99.90
30648;DHT22;17683;53.360;9.736;2022-07-23T05:10:31;15.20;99.90
30648;DHT22;17683;53.360;9.736;2022-07-23T05:12:57;15.30;99.90
30648;DHT22;17683;53.360;9.736;2022-07-23T05:15:23;15.30;99.90
30648;DHT22;17683;53.360;9.736;2022-07-23T05:17:49;15.30;99.90
30648;DHT22;17683;53.360;9.736;2022-07-23T05:20:15;15.40;99.90
30648;DHT22;17683;53.360;9.736;2022-07-23T05:22:40;15.40;99.90
30648;DHT22;17683;53.360;9.736;2022-07-23T05:25:07;15.40;99.90
30648;DHT22;17683;53.360;9.736;2022-07-23T05:27:33;15.50;99.90
30648;DHT22;17683;53.360;9.736;2022-07-23T05:29:59;15.50;99.90
30648;DHT22;17683;53.360;9.736;2022-07-23T05:32:25;15.50;99.90
30648;DHT22;17683;53.360;9.736;2022-07-23T05:34:51;15.50;99.90
30648;DHT22;17683;53.360;9.736;2022-07-23T05:37:17;15.60;99.90
30648;DHT22;17683;53.360;9.736;2022-07-23T05:39:43;15.60;99.90
30648;DHT22;17683;53.360;9.736;2022-07-23T05:42:08;15.60;99.90
30648;DHT22;17683;53.360;9.736;2022-07-23T05:44:34;15.60;99.90
30648;DHT22;17683;53.360;9.736;2022-07-23T05:47:00;15.70;99.90
30648;DHT22;17683;53.360;9.736;2022-07-23T05:49:26;15.70;99.90
30648;DHT22;17683;53.360;9.736;2022-07-23T05:51:52;15.70;99.90
30648;DHT22;17683;53.360;9.736;2022-07-23T05:54:17;15.80;99.90
30648;DHT22;17683;53.360;9.736;2022-07-23T05:56:43;15.80;99.90
30648;DHT22;17683;53.360;9.736;2022-07-23T05:59:09;15.90;99.90
30648;DHT22;17683;53.360;9.736;2022-07-23T06:01:35;15.90;99.90
30648;DHT22;17683;53.360;9.736;2022-07-23T06:04:00;15.90;99.90
30648;DHT22;17683;53.360;9.736;2022-07-23T06:06:26;16.00;99.90
30648;DHT22;17683;53.360;9.736;2022-07-23T06:08:52;16.10;99.90
30648;DHT22;17683;53.360;9.736;2022-07-23T06:11:18;16.20;99.90
30648;DHT22;17683;53.360;9.736;2022-07-23T06:13:43;16.20;99.90
30648;DHT22;17683;53.360;9.736;2022-07-23T06:16:09;16.30;99.90
30648;DHT22;17683;53.360;9.736;2022-07-23T06:18:35;16.40;99.90
30648;DHT22;17683;53.360;9.736;2022-07-23T06:21:01;16.40;99.90
30648;DHT22;17683;53.360;9.736;2022-07-23T06:23:26;16.50;99.90
30648;DHT22;17683;53.360;9.736;2022-07-23T06:25:52;16.60;99.90
30648;DHT22;17683;53.360;9.736;2022-07-23T06:28:18;16.60;99.90
30648;DHT22;17683;53.360;9.736;2022-07-23T06:30:43;16.70;99.90
30648;DHT22;17683;53.360;9.736;2022-07-23T06:33:09;16.80;99.90
30648;DHT22;17683;53.360;9.736;2022-07-23T06:35:36;16.80;99.90
30648;DHT22;17683;53.360;9.736;2022-07-23T06:38:02;16.90;99.90
30648;DHT22;17683;53.360;9.736;2022-07-23T06:40:28;17.00;99.90
30648;DHT22;17683;53.360;9.736;2022-07-23T06:42:54;17.00;99.90
30648;DHT22;17683;53.360;9.736;2022-07-23T06:45:19;17.00;99.90
30648;DHT22;17683;53.360;9.736;2022-07-23T06:47:45;17.10;99.90
30648;DHT22;17683;53.360;9.736;2022-07-23T06:50:11;17.10;99.90
30648;DHT22;17683;53.360;9.736;2022-07-23T06:52:37;17.30;99.90
30648;DHT22;17683;53.360;9.736;2022-07-23T06:55:03;17.30;99.90
30648;DHT22;17683;53.360;9.736;2022-07-23T06:57:28;17.40;99.90
30648;DHT22;17683;53.360;9.736;2022-07-23T06:59:54;17.50;99.90
30648;DHT22;17683;53.360;9.736;2022-07-23T07:02:20;17.50;99.90
30648;DHT22;17683;53.360;9.736;2022-07-23T07:04:45;17.50;99.90
30648;DHT22;17683;53.360;9.736;2022-07-23T07:07:11;17.70;99.90
30648;DHT22;17683;53.360;9.736;2022-07-23T07:09:38;17.70;99.90
30648;DHT22;17683;53.360;9.736;2022-07-23T07:12:04;17.90;99.90
30648;DHT22;17683;53.360;9.736;2022-07-23T07:14:29;18.10;99.90
30648;DHT22;17683;53.360;9.736;2022-07-23T07:16:55;18.20;99.90
30648;DHT22;17683;53.360;9.736;2022-07-23T07:19:21;18.20;99.90
30648;DHT22;17683;53.360;9.736;2022-07-23T07:21:47;18.30;99.90
30648;DHT22;17683;53.360;9.736;2022-07-23T07:24:13;18.30;99.90
30648;DHT22;17683;53.360;9.736;2022-07-23T07:26:39;18.20;99.90
30648;DHT22;17683;53.360;9.736;2022-07-23T07:29:05;18.30;99.90
30648;DHT22;17683;53.360;9.736;2022-07-23T07:31:31;18.40;99.90
30648;DHT22;17683;53.360;9.736;2022-07-23T07:33:58;18.40;99.90
30648;DHT22;17683;53.360;9.736;2022-07-23T07:36:24;18.40;99.90
30648;DHT22;17683;53.360;9.736;2022-07-23T07:38:49;18.50;99.90
30648;DHT22;17683;53.360;9.736;2022-07-23T07:41:15;18.50;99.90
30648;DHT22;17683;53.360;9.736;2022-07-23T07:43:41;18.50;99.90
30648;DHT22;17683;53.360;9.736;2022-07-23T07:46:08;18.60;99.90
30648;DHT22;17683;53.360;9.736;2022-07-23T07:48:39;18.70;99.90
30648;DHT22;17683;53.360;9.736;2022-07-23T07:51:05;18.80;99.90
30648;DHT22;17683;53.360;9.736;2022-07-23T07:53:31;18.80;99.90
30648;DHT22;17683;53.360;9.736;2022-07-23T07:55:56;18.80;99.90
30648;DHT22;17683;53.360;9.736;2022-07-23T07:58:23;18.80;99.90
30648;DHT22;17683;53.360;9.736;2022-07-23T08:00:49;18.70;99.90
30648;DHT22;17683;53.360;9.736;2022-07-23T08:03:15;18.80;99.90
30648;DHT22;17683;53.360;9.736;2022-07-23T08:05:40;18.90;99.90
30648;DHT22;17683;53.360;9.736;2022-07-23T08:08:06;19.20;99.90
30648;DHT22;17683;53.360;9.736;2022-07-23T08:10:32;19.30;99.90
30648;DHT22;17683;53.360;9.736;2022-07-23T08:12:58;19.40;99.90
30648;DHT22;17683;53.360;9.736;2022-07-23T08:15:26;19.50;99.90
30648;DHT22;17683;53.360;9.736;2022-07-23T08:17:52;19.50;99.90
30648;DHT22;17683;53.360;9.736;2022-07-23T08:20:20;19.50;99.90
30648;DHT22;17683;53.360;9.736;2022-07-23T08:22:54;19.60;99.90
30648;DHT22;17683;53.360;9.736;2022-07-23T08:25:23;19.60;99.90
30648;DHT22;17683;53.360;9.736;2022-07-23T08:27:50;19.80;99.90
30648;DHT22;17683;53.360;9.736;2022-07-23T08:30:16;19.90;99.90
30648;DHT22;17683;53.360;9.736;2022-07-23T08:32:53;20.00;99.90
30648;DHT22;17683;53.360;9.736;2022-07-23T08:37:53;20.10;99.90
30648;DHT22;17683;53.360;9.736;2022-07-23T08:40:19;20.10;99.90
30648;DHT22;17683;53.360;9.736;2022-07-23T08:42:47;20.20;99.90
30648;DHT22;17683;53.360;9.736;2022-07-23T08:45:19;20.10;99.90
30648;DHT22;17683;53.360;9.736;2022-07-23T08:47:56;20.10;99.90
30648;DHT22;17683;53.360;9.736;2022-07-23T08:50:23;20.10;99.90
30648;DHT22;17683;53.360;9.736;2022-07-23T08:52:50;20.00;99.90
30648;DHT22;17683;53.360;9.736;2022-07-23T08:55:17;20.00;99.90
30648;DHT22;17683;53.360;9.736;2022-07-23T08:57:43;20.00;99.90
30648;DHT22;17683;53.360;9.736;2022-07-23T09:00:10;20.00;99.90
30648;DHT22;17683;53.360;9.736;2022-07-23T09:02:40;20.10;99.90
30648;DHT22;17683;53.360;9.736;2022-07-23T09:05:07;20.10;99.80
30648;DHT22;17683;53.360;9.736;2022-07-23T09:07:33;20.10;99.70
30648;DHT22;17683;53.360;9.736;2022-07-23T09:10:10;20.10;99.80
30648;DHT22;17683;53.360;9.736;2022-07-23T09:12:37;20.00;99.30
30648;DHT22;17683;53.360;9.736;2022-07-23T09:15:06;20.00;99.10
30648;DHT22;17683;53.360;9.736;2022-07-23T09:17:40;20.00;99.90
30648;DHT22;17683;53.360;9.736;2022-07-23T09:20:11;20.00;99.90
30648;DHT22;17683;53.360;9.736;2022-07-23T09:22:38;20.10;98.60
30648;DHT22;17683;53.360;9.736;2022-07-23T09:25:15;20.20;99.40
30648;DHT22;17683;53.360;9.736;2022-07-23T09:27:50;20.30;99.00
30648;DHT22;17683;53.360;9.736;2022-07-23T09:30:16;20.30;99.10
30648;DHT22;17683;53.360;9.736;2022-07-23T09:32:42;20.30;99.20
30648;DHT22;17683;53.360;9.736;2022-07-23T09:35:08;20.50;98.20
30648;DHT22;17683;53.360;9.736;2022-07-23T09:37:34;20.60;99.10
30648;DHT22;17683;53.360;9.736;2022-07-23T09:40:10;20.90;98.40
30648;DHT22;17683;53.360;9.736;2022-07-23T09:42:55;20.90;97.70
30648;DHT22;17683;53.360;9.736;2022-07-23T09:45:20;21.00;98.00
30648;DHT22;17683;53.360;9.736;2022-07-23T09:47:46;20.90;98.00
30648;DHT22;17683;53.360;9.736;2022-07-23T09:50:12;20.80;97.10
30648;DHT22;17683;53.360;9.736;2022-07-23T09:52:47;20.70;97.70
30648;DHT22;17683;53.360;9.736;2022-07-23T09:55:14;20.60;97.90
30648;DHT22;17683;53.360;9.736;2022-07-23T09:57:44;20.40;97.80
30648;DHT22;17683;53.360;9.736;2022-07-23T10:00:19;20.30;97.90
30648;DHT22;17683;53.360;9.736;2022-07-23T10:02:46;20.10;98.20
30648;DHT22;17683;53.360;9.736;2022-07-23T10:05:12;19.90;98.50
30648;DHT22;17683;53.360;9.736;2022-07-23T10:07:39;19.70;98.00
30648;DHT22;17683;53.360;9.736;2022-07-23T10:10:06;19.60;98.60
30648;DHT22;17683;53.360;9.736;2022-07-23T10:12:32;19.50;99.00
30648;DHT22;17683;53.360;9.736;2022-07-23T10:15:16;19.40;98.70
30648;DHT22;17683;53.360;9.736;2022-07-23T10:17:42;19.30;98.80
30648;DHT22;17683;53.360;9.736;2022-07-23T10:20:08;19.30;98.80
30648;DHT22;17683;53.360;9.736;2022-07-23T10:22:38;19.40;99.30
30648;DHT22;17683;53.360;9.736;2022-07-23T10:33:54;20.00;98.80
30648;DHT22;17683;53.360;9.736;2022-07-23T10:39:25;20.20;98.60
30648;DHT22;17683;53.360;9.736;2022-07-23T10:41:52;20.30;98.70
30648;DHT22;17683;53.360;9.736;2022-07-23T10:44:21;20.40;98.10
30648;DHT22;17683;53.360;9.736;2022-07-23T10:47:01;20.30;97.50
30648;DHT22;17683;53.360;9.736;2022-07-23T10:49:46;20.30;97.10
30648;DHT22;17683;53.360;9.736;2022-07-23T10:54:41;20.30;97.50
30648;DHT22;17683;53.360;9.736;2022-07-23T10:57:08;20.40;97.80
30648;DHT22;17683;53.360;9.736;2022-07-23T11:02:32;20.70;96.70
30648;DHT22;17683;53.360;9.736;2022-07-23T11:05:06;20.70;96.70
30648;DHT22;17683;53.360;9.736;2022-07-23T11:07:33;20.80;96.50
30648;DHT22;17683;53.360;9.736;2022-07-23T11:09:59;20.80;97.50
30648;DHT22;17683;53.360;9.736;2022-07-23T11:15:11;20.80;97.00
30648;DHT22;17683;53.360;9.736;2022-07-23T11:22:55;20.90;96.90
30648;DHT22;17683;53.360;9.736;2022-07-23T11:27:48;21.00;96.90
30648;DHT22;17683;53.360;9.736;2022-07-23T11:30:39;21.10;97.00
30648;DHT22;17683;53.360;9.736;2022-07-23T11:35:36;21.10;97.20
30648;DHT22;17683;53.360;9.736;2022-07-23T11:40:39;21.20;97.30
30648;DHT22;17683;53.360;9.736;2022-07-23T11:43:07;21.20;97.10
30648;DHT22;17683;53.360;9.736;2022-07-23T11:45:44;21.20;96.00
30648;DHT22;17683;53.360;9.736;2022-07-23T11:48:28;21.20;96.60
30648;DHT22;17683;53.360;9.736;2022-07-23T11:50:57;21.20;96.30
30648;DHT22;17683;53.360;9.736;2022-07-23T11:53:33;21.30;96.70
30648;DHT22;17683;53.360;9.736;2022-07-23T11:56:07;21.30;96.10
30648;DHT22;17683;53.360;9.736;2022-07-23T11:58:33;21.40;96.70
30648;DHT22;17683;53.360;9.736;2022-07-23T12:00:59;21.40;96.30
30648;DHT22;17683;53.360;9.736;2022-07-23T12:03:26;21.50;96.30
30648;DHT22;17683;53.360;9.736;2022-07-23T12:05:56;21.50;96.20
30648;DHT22;17683;53.360;9.736;2022-07-23T12:08:23;21.50;96.50
30648;DHT22;17683;53.360;9.736;2022-07-23T12:10:48;21.50;95.90
30648;DHT22;17683;53.360;9.736;2022-07-23T12:13:19;21.60;95.80
30648;DHT22;17683;53.360;9.736;2022-07-23T12:15:50;21.80;96.30
30648;DHT22;17683;53.360;9.736;2022-07-23T12:18:24;21.90;95.80
30648;DHT22;17683;53.360;9.736;2022-07-23T12:20:55;22.00;95.20
30648;DHT22;17683;53.360;9.736;2022-07-23T12:23:23;22.00;95.20
30648;DHT22;17683;53.360;9.736;2022-07-23T12:25:51;22.00;95.00
30648;DHT22;17683;53.360;9.736;2022-07-23T12:28:20;22.00;95.50
30648;DHT22;17683;53.360;9.736;2022-07-23T12:30:51;22.00;95.10
30648;DHT22;17683;53.360;9.736;2022-07-23T12:33:42;21.90;94.90
30648;DHT22;17683;53.360;9.736;2022-07-23T12:36:09;21.80;95.40
30648;DHT22;17683;53.360;9.736;2022-07-23T12:38:47;21.80;95.60
30648;DHT22;17683;53.360;9.736;2022-07-23T12:41:14;21.70;95.10
30648;DHT22;17683;53.360;9.736;2022-07-23T12:43:42;21.70;95.70
30648;DHT22;17683;53.360;9.736;2022-07-23T12:48:39;21.70;95.70
30648;DHT22;17683;53.360;9.736;2022-07-23T12:51:19;21.80;95.70
30648;DHT22;17683;53.360;9.736;2022-07-23T12:53:48;21.80;95.20
30648;DHT22;17683;53.360;9.736;2022-07-23T12:56:17;21.80;95.30
30648;DHT22;17683;53.360;9.736;2022-07-23T12:58:49;21.80;94.80
30648;DHT22;17683;53.360;9.736;2022-07-23T13:06:31;21.80;95.70
30648;DHT22;17683;53.360;9.736;2022-07-23T13:08:57;21.80;95.80
30648;DHT22;17683;53.360;9.736;2022-07-23T13:11:23;21.90;95.50
30648;DHT22;17683;53.360;9.736;2022-07-23T13:13:49;22.20;95.40
30648;DHT22;17683;53.360;9.736;2022-07-23T13:16:15;22.50;94.80
30648;DHT22;17683;53.360;9.736;2022-07-23T13:18:41;22.60;94.30
30648;DHT22;17683;53.360;9.736;2022-07-23T13:21:07;22.70;94.00
30648;DHT22;17683;53.360;9.736;2022-07-23T13:23:32;22.70;94.30
30648;DHT22;17683;53.360;9.736;2022-07-23T13:25:58;22.60;94.10
30648;DHT22;17683;53.360;9.736;2022-07-23T13:28:24;22.60;94.30
30648;DHT22;17683;53.360;9.736;2022-07-23T13:30:50;22.50;94.70
30648;DHT22;17683;53.360;9.736;2022-07-23T13:33:18;22.40;94.40
30648;DHT22;17683;53.360;9.736;2022-07-23T13:35:45;22.30;94.40
30648;DHT22;17683;53.360;9.736;2022-07-23T13:38:10;22.20;94.50
30648;DHT22;17683;53.360;9.736;2022-07-23T13:40:39;22.20;94.50
30648;DHT22;17683;53.360;9.736;2022-07-23T13:43:10;22.20;94.20
30648;DHT22;17683;53.360;9.736;2022-07-23T13:45:36;22.20;94.60
30648;DHT22;17683;53.360;9.736;2022-07-23T13:48:02;22.30;95.30
30648;DHT22;17683;53.360;9.736;2022-07-23T13:50:29;22.40;94.90
30648;DHT22;17683;53.360;9.736;2022-07-23T13:52:54;22.60;94.60
30648;DHT22;17683;53.360;9.736;2022-07-23T13:55:20;22.80;93.60
30648;DHT22;17683;53.360;9.736;2022-07-23T13:57:46;22.90;94.10
30648;DHT22;17683;53.360;9.736;2022-07-23T14:00:12;22.90;93.70
30648;DHT22;17683;53.360;9.736;2022-07-23T14:02:39;22.70;93.10
30648;DHT22;17683;53.360;9.736;2022-07-23T14:05:08;22.50;93.10
30648;DHT22;17683;53.360;9.736;2022-07-23T14:07:35;22.40;93.30
30648;DHT22;17683;53.360;9.736;2022-07-23T14:10:03;22.30;93.30
30648;DHT22;17683;53.360;9.736;2022-07-23T14:12:29;22.30;93.10
30648;DHT22;17683;53.360;9.736;2022-07-23T14:14:55;22.20;93.30
30648;DHT22;17683;53.360;9.736;2022-07-23T14:17:20;22.10;93.40
30648;DHT22;17683;53.360;9.736;2022-07-23T14:19:46;22.00;93.70
30648;DHT22;17683;53.360;9.736;2022-07-23T14:22:12;21.90;93.90
30648;DHT22;17683;53.360;9.736;2022-07-23T14:24:37;21.70;94.60
30648;DHT22;17683;53.360;9.736;2022-07-23T14:27:04;21.80;94.70
30648;DHT22;17683;53.360;9.736;2022-07-23T14:29:30;22.00;94.70
30648;DHT22;17683;53.360;9.736;2022-07-23T14:31:57;22.10;93.90
30648;DHT22;17683;53.360;9.736;2022-07-23T14:34:23;22.20;93.60
30648;DHT22;17683;53.360;9.736;2022-07-23T14:36:49;22.30;93.50
30648;DHT22;17683;53.360;9.736;2022-07-23T14:39:15;22.30;93.70
30648;DHT22;17683;53.360;9.736;2022-07-23T14:41:40;22.20;92.90
30648;DHT22;17683;53.360;9.736;2022-07-23T14:44:06;22.20;92.80
30648;DHT22;17683;53.360;9.736;2022-07-23T14:46:32;22.30;92.70
30648;DHT22;17683;53.360;9.736;2022-07-23T14:48:58;22.20;92.80
30648;DHT22;17683;53.360;9.736;2022-07-23T14:51:24;22.30;92.70
30648;DHT22;17683;53.360;9.736;2022-07-23T14:53:50;22.20;92.50
30648;DHT22;17683;53.360;9.736;2022-07-23T14:56:16;22.20;93.20
30648;DHT22;17683;53.360;9.736;2022-07-23T14:58:41;22.20;93.30
30648;DHT22;17683;53.360;9.736;2022-07-23T15:01:08;22.10;92.50
30648;DHT22;17683;53.360;9.736;2022-07-23T15:03:33;22.10;92.30
30648;DHT22;17683;53.360;9.736;2022-07-23T15:05:59;22.10;93.00
30648;DHT22;17683;53.360;9.736;2022-07-23T15:08:25;22.10;92.60
30648;DHT22;17683;53.360;9.736;2022-07-23T15:10:51;22.10;92.80
30648;DHT22;17683;53.360;9.736;2022-07-23T15:13:17;22.00;92.90
30648;DHT22;17683;53.360;9.736;2022-07-23T15:15:43;22.00;93.00
30648;DHT22;17683;53.360;9.736;2022-07-23T15:18:10;21.90;92.60
30648;DHT22;17683;53.360;9.736;2022-07-23T15:20:36;21.90;92.60
30648;DHT22;17683;53.360;9.736;2022-07-23T15:23:04;22.00;93.30
30648;DHT22;17683;53.360;9.736;2022-07-23T15:25:30;22.10;92.10
30648;DHT22;17683;53.360;9.736;2022-07-23T15:27:57;22.00;92.30
30648;DHT22;17683;53.360;9.736;2022-07-23T15:30:24;21.90;92.20
30648;DHT22;17683;53.360;9.736;2022-07-23T15:32:50;21.80;92.90
30648;DHT22;17683;53.360;9.736;2022-07-23T15:35:16;21.80;93.00
30648;DHT22;17683;53.360;9.736;2022-07-23T15:37:42;21.80;92.90
30648;DHT22;17683;53.360;9.736;2022-07-23T15:40:09;21.80;92.50
30648;DHT22;17683;53.360;9.736;2022-07-23T15:42:35;21.70;92.50
30648;DHT22;17683;53.360;9.736;2022-07-23T15:45:01;21.60;93.00
30648;DHT22;17683;53.360;9.736;2022-07-23T15:47:27;21.50;92.70
30648;DHT22;17683;53.360;9.736;2022-07-23T15:49:53;21.50;92.90
30648;DHT22;17683;53.360;9.736;2022-07-23T15:52:19;21.50;92.90
30648;DHT22;17683;53.360;9.736;2022-07-23T15:54:44;21.70;93.10
30648;DHT22;17683;53.360;9.736;2022-07-23T15:57:10;21.70;93.00
30648;DHT22;17683;53.360;9.736;2022-07-23T15:59:37;21.70;93.30
30648;DHT22;17683;53.360;9.736;2022-07-23T16:02:03;21.70;93.50
30648;DHT22;17683;53.360;9.736;2022-07-23T16:04:29;21.80;93.30
30648;DHT22;17683;53.360;9.736;2022-07-23T16:06:55;21.90;92.80
30648;DHT22;17683;53.360;9.736;2022-07-23T16:09:21;21.90;92.70
30648;DHT22;17683;53.360;9.736;2022-07-23T16:11:47;21.90;92.50